sensor_id;sensor_type;location;lat;lon;timestamp;pressure;altitude;pressure_sealevel;temperature;humidity
74960;BME280;63518;49.572;1.106;2023-05-09T00:01:41;99705.19;;;13.66;82.20
74960;BME280;63518;49.572;1.106;2023-05-09T00:04:10;99704.41;;;13.79;82.64
74960;BME280;63518;49.572;1.106;2023-05-09T00:06:37;99695.16;;;13.70;80.57
74960;BME280;63518;49.572;1.106;2023-05-09T00:09:04;99686.50;;;13.44;81.82
74960;BME280;63518;49.572;1.106;2023-05-09T00:11:31;99687.94;;;13.55;82.55
74960;BME280;63518;49.572;1.106;2023-05-09T00:13:57;99689.59;;;13.56;81.55
74960;BME280;63518;49.572;1.106;2023-05-09T00:16:24;99670.06;;;13.48;82.20
74960;BME280;63518;49.572;1.106;2023-05-09T00:18:51;99676.34;;;13.21;82.73
74960;BME280;63518;49.572;1.106;2023-05-09T00:21:18;99666.16;;;13.35;83.01
74960;BME280;63518;49.572;1.106;2023-05-09T00:23:45;99663.63;;;13.52;82.54
74960;BME280;63518;49.572;1.106;2023-05-09T00:26:13;99660.75;;;13.44;82.11
74960;BME280;63518;49.572;1.106;2023-05-09T00:28:39;99655.13;;;13.16;84.27
74960;BME280;63518;49.572;1.106;2023-05-09T00:31:06;99658.38;;;13.37;82.57
74960;BME280;63518;49.572;1.106;2023-05-09T00:33:33;99656.00;;;13.30;83.34
74960;BME280;63518;49.572;1.106;2023-05-09T00:36:00;99646.59;;;13.45;82.63
74960;BME280;63518;49.572;1.106;2023-05-09T00:38:26;99644.16;;;13.25;83.60
74960;BME280;63518;49.572;1.106;2023-05-09T00:40:53;99643.81;;;13.45;83.92
74960;BME280;63518;49.572;1.106;2023-05-09T00:43:20;99647.28;;;13.37;84.98
74960;BME280;63518;49.572;1.106;2023-05-09T00:45:47;99629.13;;;13.31;84.64
74960;BME280;63518;49.572;1.106;2023-05-09T00:48:14;99637.63;;;13.35;84.67
74960;BME280;63518;49.572;1.106;2023-05-09T00:50:42;99633.25;;;13.47;83.57
74960;BME280;63518;49.572;1.106;2023-05-09T00:53:09;99620.69;;;13.22;84.84
74960;BME280;63518;49.572;1.106;2023-05-09T00:55:37;99633.22;;;13.34;86.37
74960;BME280;63518;49.572;1.106;2023-05-09T00:58:03;99631.53;;;13.51;83.93
74960;BME280;63518;49.572;1.106;2023-05-09T01:00:30;99622.38;;;13.37;83.54
74960;BME280;63518;49.572;1.106;2023-05-09T01:02:57;99621.59;;;13.18;85.44
74960;BME280;63518;49.572;1.106;2023-05-09T01:05:29;99621.00;;;13.21;87.10
74960;BME280;63518;49.572;1.106;2023-05-09T01:08:11;99612.78;;;13.16;87.16
74960;BME280;63518;49.572;1.106;2023-05-09T01:13:48;99616.53;;;12.87;88.07
74960;BME280;63518;49.572;1.106;2023-05-09T01:16:40;99613.59;;;13.16;87.58
74960;BME280;63518;49.572;1.106;2023-05-09T01:19:34;99609.06;;;13.07;87.86
74960;BME280;63518;49.572;1.106;2023-05-09T01:22:06;99602.91;;;12.96;87.66
74960;BME280;63518;49.572;1.106;2023-05-09T01:30:03;99591.47;;;13.16;87.70
74960;BME280;63518;49.572;1.106;2023-05-09T01:32:34;99589.97;;;12.72;88.77
74960;BME280;63518;49.572;1.106;2023-05-09T01:35:04;99580.88;;;13.05;87.92
74960;BME280;63518;49.572;1.106;2023-05-09T01:37:33;99584.47;;;13.05;87.21
74960;BME280;63518;49.572;1.106;2023-05-09T01:40:06;99568.59;;;12.92;88.87
74960;BME280;63518;49.572;1.106;2023-05-09T01:43:04;99582.69;;;12.77;89.41
74960;BME280;63518;49.572;1.106;2023-05-09T01:45:33;99576.59;;;12.93;88.59
74960;BME280;63518;49.572;1.106;2023-05-09T01:48:03;99573.72;;;12.85;89.07
74960;BME280;63518;49.572;1.106;2023-05-09T01:50:30;99578.50;;;12.79;89.82
74960;BME280;63518;49.572;1.106;2023-05-09T01:53:00;99571.06;;;12.93;89.82
74960;BME280;63518;49.572;1.106;2023-05-09T01:55:30;99567.03;;;12.72;90.19
74960;BME280;63518;49.572;1.106;2023-05-09T01:58:03;99561.69;;;12.75;89.49
74960;BME280;63518;49.572;1.106;2023-05-09T02:00:32;99564.75;;;12.74;89.67
74960;BME280;63518;49.572;1.106;2023-05-09T02:03:00;99563.34;;;12.77;90.30
74960;BME280;63518;49.572;1.106;2023-05-09T02:05:29;99564.09;;;12.63;91.28
74960;BME280;63518;49.572;1.106;2023-05-09T02:07:58;99562.13;;;12.64;89.75
74960;BME280;63518;49.572;1.106;2023-05-09T02:10:27;99545.59;;;12.78;89.90
74960;BME280;63518;49.572;1.106;2023-05-09T02:12:54;99552.66;;;12.70;89.19
74960;BME280;63518;49.572;1.106;2023-05-09T02:15:23;99543.97;;;12.77;90.39
74960;BME280;63518;49.572;1.106;2023-05-09T02:17:50;99554.66;;;12.83;89.00
74960;BME280;63518;49.572;1.106;2023-05-09T02:20:17;99541.44;;;12.80;89.89
74960;BME280;63518;49.572;1.106;2023-05-09T02:22:44;99550.75;;;12.52;91.27
74960;BME280;63518;49.572;1.106;2023-05-09T02:25:11;99542.91;;;12.91;90.53
74960;BME280;63518;49.572;1.106;2023-05-09T02:27:43;99554.13;;;12.81;90.29
74960;BME280;63518;49.572;1.106;2023-05-09T02:30:14;99553.31;;;12.81;89.84
74960;BME280;63518;49.572;1.106;2023-05-09T02:32:44;99543.59;;;12.83;89.00
74960;BME280;63518;49.572;1.106;2023-05-09T02:35:13;99530.34;;;12.29;91.00
74960;BME280;63518;49.572;1.106;2023-05-09T02:37:43;99538.88;;;12.84;90.72
74960;BME280;63518;49.572;1.106;2023-05-09T02:40:11;99531.00;;;12.58;89.93
74960;BME280;63518;49.572;1.106;2023-05-09T02:42:39;99544.34;;;12.70;90.41
74960;BME280;63518;49.572;1.106;2023-05-09T02:45:06;99525.69;;;12.62;90.28
74960;BME280;63518;49.572;1.106;2023-05-09T02:47:34;99526.06;;;12.55;91.27
74960;BME280;63518;49.572;1.106;2023-05-09T02:50:01;99526.63;;;12.71;90.89
74960;BME280;63518;49.572;1.106;2023-05-09T02:52:28;99516.13;;;12.73;89.82
74960;BME280;63518;49.572;1.106;2023-05-09T02:54:55;99526.44;;;12.67;91.30
74960;BME280;63518;49.572;1.106;2023-05-09T02:57:21;99516.81;;;12.65;90.11
74960;BME280;63518;49.572;1.106;2023-05-09T02:59:48;99513.84;;;12.75;90.96
74960;BME280;63518;49.572;1.106;2023-05-09T03:02:15;99509.19;;;12.57;90.52
74960;BME280;63518;49.572;1.106;2023-05-09T03:04:41;99513.69;;;12.85;89.82
74960;BME280;63518;49.572;1.106;2023-05-09T03:07:08;99509.88;;;12.49;90.85
74960;BME280;63518;49.572;1.106;2023-05-09T03:09:35;99511.16;;;12.70;90.90
74960;BME280;63518;49.572;1.106;2023-05-09T03:12:03;99500.78;;;12.94;90.35
74960;BME280;63518;49.572;1.106;2023-05-09T03:14:31;99504.69;;;12.93;90.15
74960;BME280;63518;49.572;1.106;2023-05-09T03:16:58;99491.00;;;12.69;90.34
74960;BME280;63518;49.572;1.106;2023-05-09T03:19:24;99492.34;;;12.72;91.04
74960;BME280;63518;49.572;1.106;2023-05-09T03:21:51;99494.19;;;12.77;90.54
74960;BME280;63518;49.572;1.106;2023-05-09T03:24:18;99487.34;;;12.74;89.99
74960;BME280;63518;49.572;1.106;2023-05-09T03:26:45;99489.59;;;12.72;89.72
74960;BME280;63518;49.572;1.106;2023-05-09T03:29:11;99476.78;;;12.76;90.71
74960;BME280;63518;49.572;1.106;2023-05-09T03:31:38;99474.75;;;12.82;91.16
74960;BME280;63518;49.572;1.106;2023-05-09T03:34:05;99471.44;;;12.66;90.28
74960;BME280;63518;49.572;1.106;2023-05-09T03:36:32;99461.22;;;12.47;90.94
74960;BME280;63518;49.572;1.106;2023-05-09T03:38:58;99456.69;;;12.70;91.46
74960;BME280;63518;49.572;1.106;2023-05-09T03:41:25;99471.88;;;12.73;91.53
74960;BME280;63518;49.572;1.106;2023-05-09T03:43:52;99468.38;;;12.67;91.38
74960;BME280;63518;49.572;1.106;2023-05-09T03:46:19;99454.84;;;12.66;91.52
74960;BME280;63518;49.572;1.106;2023-05-09T03:48:46;99455.97;;;12.65;91.64
74960;BME280;63518;49.572;1.106;2023-05-09T03:51:12;99457.09;;;12.78;91.66
74960;BME280;63518;49.572;1.106;2023-05-09T03:53:39;99447.81;;;12.73;90.30
74960;BME280;63518;49.572;1.106;2023-05-09T03:56:06;99444.94;;;12.46;91.69
74960;BME280;63518;49.572;1.106;2023-05-09T03:58:33;99428.00;;;12.66;92.54
74960;BME280;63518;49.572;1.106;2023-05-09T04:01:00;99440.16;;;12.52;92.19
74960;BME280;63518;49.572;1.106;2023-05-09T04:03:27;99435.56;;;12.61;92.84
74960;BME280;63518;49.572;1.106;2023-05-09T04:05:54;99428.88;;;12.81;92.86
74960;BME280;63518;49.572;1.106;2023-05-09T04:08:21;99413.38;;;12.66;91.50
74960;BME280;63518;49.572;1.106;2023-05-09T04:10:49;99420.00;;;12.51;92.86
74960;BME280;63518;49.572;1.106;2023-05-09T04:13:16;99425.44;;;12.70;92.82
74960;BME280;63518;49.572;1.106;2023-05-09T04:15:43;99423.78;;;12.55;91.95
74960;BME280;63518;49.572;1.106;2023-05-09T04:18:10;99412.16;;;12.72;92.95
74960;BME280;63518;49.572;1.106;2023-05-09T04:20:43;99414.97;;;12.53;92.78
74960;BME280;63518;49.572;1.106;2023-05-09T04:23:10;99406.88;;;12.43;93.15
74960;BME280;63518;49.572;1.106;2023-05-09T04:25:37;99415.13;;;12.75;92.29
74960;BME280;63518;49.572;1.106;2023-05-09T04:28:03;99408.34;;;12.68;92.45
74960;BME280;63518;49.572;1.106;2023-05-09T04:30:30;99416.66;;;12.82;92.56
74960;BME280;63518;49.572;1.106;2023-05-09T04:32:57;99408.78;;;12.75;91.27
74960;BME280;63518;49.572;1.106;2023-05-09T04:35:24;99405.72;;;12.90;91.05
74960;BME280;63518;49.572;1.106;2023-05-09T04:37:50;99408.13;;;12.51;91.74
74960;BME280;63518;49.572;1.106;2023-05-09T04:40:17;99406.03;;;13.02;92.28
74960;BME280;63518;49.572;1.106;2023-05-09T04:42:44;99399.41;;;12.43;92.27
74960;BME280;63518;49.572;1.106;2023-05-09T04:45:11;99391.44;;;12.69;91.35
74960;BME280;63518;49.572;1.106;2023-05-09T04:47:38;99392.06;;;12.66;92.15
74960;BME280;63518;49.572;1.106;2023-05-09T04:50:06;99399.44;;;12.71;92.91
74960;BME280;63518;49.572;1.106;2023-05-09T04:52:33;99395.03;;;12.70;91.96
74960;BME280;63518;49.572;1.106;2023-05-09T04:55:00;99387.28;;;12.72;91.85
74960;BME280;63518;49.572;1.106;2023-05-09T04:57:27;99402.19;;;12.71;92.24
74960;BME280;63518;49.572;1.106;2023-05-09T04:59:54;99389.91;;;12.77;91.71
74960;BME280;63518;49.572;1.106;2023-05-09T05:02:20;99375.56;;;12.61;92.18
74960;BME280;63518;49.572;1.106;2023-05-09T05:04:47;99390.25;;;12.89;92.32
74960;BME280;63518;49.572;1.106;2023-05-09T05:07:14;99383.78;;;12.66;91.41
74960;BME280;63518;49.572;1.106;2023-05-09T05:09:41;99368.19;;;12.57;92.65
74960;BME280;63518;49.572;1.106;2023-05-09T05:12:08;99364.72;;;12.65;92.40
74960;BME280;63518;49.572;1.106;2023-05-09T05:14:35;99381.81;;;12.67;93.23
74960;BME280;63518;49.572;1.106;2023-05-09T05:17:02;99384.53;;;12.99;92.51
74960;BME280;63518;49.572;1.106;2023-05-09T05:19:31;99374.59;;;12.98;91.60
74960;BME280;63518;49.572;1.106;2023-05-09T05:21:57;99375.78;;;12.79;91.72
74960;BME280;63518;49.572;1.106;2023-05-09T05:24:26;99366.91;;;12.95;91.75
74960;BME280;63518;49.572;1.106;2023-05-09T05:26:53;99374.97;;;12.92;92.16
74960;BME280;63518;49.572;1.106;2023-05-09T05:29:20;99361.97;;;12.92;91.32
74960;BME280;63518;49.572;1.106;2023-05-09T05:31:47;99368.19;;;12.70;91.88
74960;BME280;63518;49.572;1.106;2023-05-09T05:34:13;99370.28;;;13.06;91.91
74960;BME280;63518;49.572;1.106;2023-05-09T05:36:44;99363.31;;;13.09;90.73
74960;BME280;63518;49.572;1.106;2023-05-09T05:39:11;99360.44;;;12.72;92.33
74960;BME280;63518;49.572;1.106;2023-05-09T05:41:37;99362.59;;;13.17;91.83
74960;BME280;63518;49.572;1.106;2023-05-09T05:44:04;99352.25;;;13.09;90.60
74960;BME280;63518;49.572;1.106;2023-05-09T05:46:31;99363.31;;;13.09;91.19
74960;BME280;63518;49.572;1.106;2023-05-09T05:48:58;99363.63;;;13.07;89.87
74960;BME280;63518;49.572;1.106;2023-05-09T05:51:24;99354.78;;;12.91;91.89
74960;BME280;63518;49.572;1.106;2023-05-09T05:53:51;99358.88;;;12.94;92.53
74960;BME280;63518;49.572;1.106;2023-05-09T05:56:18;99350.09;;;13.19;91.14
74960;BME280;63518;49.572;1.106;2023-05-09T05:58:44;99352.66;;;12.88;92.50
74960;BME280;63518;49.572;1.106;2023-05-09T06:01:11;99339.09;;;12.87;91.19
74960;BME280;63518;49.572;1.106;2023-05-09T06:03:39;99340.66;;;12.93;92.54
74960;BME280;63518;49.572;1.106;2023-05-09T06:06:09;99349.97;;;12.83;92.14
74960;BME280;63518;49.572;1.106;2023-05-09T06:08:40;99340.78;;;13.01;91.45
74960;BME280;63518;49.572;1.106;2023-05-09T06:11:08;99345.81;;;12.99;92.34
74960;BME280;63518;49.572;1.106;2023-05-09T06:13:36;99339.78;;;12.97;92.13
74960;BME280;63518;49.572;1.106;2023-05-09T06:16:10;99333.59;;;13.00;91.15
74960;BME280;63518;49.572;1.106;2023-05-09T06:18:46;99331.88;;;13.05;91.42
74960;BME280;63518;49.572;1.106;2023-05-09T06:21:23;99339.94;;;13.15;91.00
74960;BME280;63518;49.572;1.106;2023-05-09T06:23:50;99326.84;;;13.07;91.01
74960;BME280;63518;49.572;1.106;2023-05-09T06:26:38;99327.03;;;13.24;91.64
74960;BME280;63518;49.572;1.106;2023-05-09T06:29:05;99321.50;;;13.10;91.60
74960;BME280;63518;49.572;1.106;2023-05-09T06:31:34;99325.47;;;13.18;92.04
74960;BME280;63518;49.572;1.106;2023-05-09T06:34:05;99323.34;;;13.15;92.30
74960;BME280;63518;49.572;1.106;2023-05-09T06:36:33;99323.44;;;13.10;92.34
74960;BME280;63518;49.572;1.106;2023-05-09T06:39:01;99316.59;;;13.21;92.37
74960;BME280;63518;49.572;1.106;2023-05-09T06:41:37;99316.66;;;13.29;91.83
74960;BME280;63518;49.572;1.106;2023-05-09T06:44:13;99317.47;;;13.30;90.70
74960;BME280;63518;49.572;1.106;2023-05-09T06:46:40;99316.97;;;13.28;89.80
74960;BME280;63518;49.572;1.106;2023-05-09T06:49:08;99311.47;;;13.14;90.58
74960;BME280;63518;49.572;1.106;2023-05-09T06:51:45;99310.34;;;13.15;91.21
74960;BME280;63518;49.572;1.106;2023-05-09T06:54:12;99310.00;;;13.17;90.36
74960;BME280;63518;49.572;1.106;2023-05-09T06:56:49;99310.81;;;13.31;91.38
74960;BME280;63518;49.572;1.106;2023-05-09T06:59:17;99310.50;;;13.33;90.12
74960;BME280;63518;49.572;1.106;2023-05-09T07:01:45;99321.25;;;13.34;91.09
74960;BME280;63518;49.572;1.106;2023-05-09T07:04:21;99312.34;;;13.37;90.79
74960;BME280;63518;49.572;1.106;2023-05-09T07:06:49;99301.72;;;13.17;91.13
74960;BME280;63518;49.572;1.106;2023-05-09T07:09:25;99301.38;;;13.32;91.20
74960;BME280;63518;49.572;1.106;2023-05-09T07:11:54;99297.38;;;13.38;91.27
74960;BME280;63518;49.572;1.106;2023-05-09T07:14:22;99305.19;;;13.22;91.67
74960;BME280;63518;49.572;1.106;2023-05-09T07:16:50;99283.31;;;13.35;90.80
74960;BME280;63518;49.572;1.106;2023-05-09T07:19:19;99292.22;;;13.45;90.48
74960;BME280;63518;49.572;1.106;2023-05-09T07:21:46;99300.28;;;13.19;91.61
74960;BME280;63518;49.572;1.106;2023-05-09T07:24:13;99301.75;;;13.39;92.14
74960;BME280;63518;49.572;1.106;2023-05-09T07:26:40;99287.63;;;13.27;91.63
74960;BME280;63518;49.572;1.106;2023-05-09T07:29:08;99276.84;;;13.39;90.39
74960;BME280;63518;49.572;1.106;2023-05-09T07:31:36;99275.47;;;13.50;88.61
74960;BME280;63518;49.572;1.106;2023-05-09T07:34:07;99281.22;;;13.54;90.36
74960;BME280;63518;49.572;1.106;2023-05-09T07:36:43;99281.78;;;13.65;89.11
74960;BME280;63518;49.572;1.106;2023-05-09T07:39:10;99278.75;;;13.52;90.68
74960;BME280;63518;49.572;1.106;2023-05-09T07:41:37;99280.78;;;13.61;89.02
74960;BME280;63518;49.572;1.106;2023-05-09T07:44:04;99283.00;;;14.03;87.72
74960;BME280;63518;49.572;1.106;2023-05-09T07:46:32;99286.19;;;13.88;88.27
74960;BME280;63518;49.572;1.106;2023-05-09T07:48:59;99287.25;;;13.78;89.48
74960;BME280;63518;49.572;1.106;2023-05-09T07:51:27;99283.56;;;13.61;90.03
74960;BME280;63518;49.572;1.106;2023-05-09T07:54:03;99283.28;;;13.71;89.23
74960;BME280;63518;49.572;1.106;2023-05-09T07:56:38;99280.25;;;13.81;89.70
74960;BME280;63518;49.572;1.106;2023-05-09T07:59:05;99284.09;;;13.71;89.33
74960;BME280;63518;49.572;1.106;2023-05-09T08:01:32;99268.28;;;13.49;90.21
74960;BME280;63518;49.572;1.106;2023-05-09T08:03:59;99271.22;;;13.44;89.22
74960;BME280;63518;49.572;1.106;2023-05-09T08:06:28;99278.50;;;13.63;89.79
74960;BME280;63518;49.572;1.106;2023-05-09T08:08:56;99266.66;;;13.93;90.55
74960;BME280;63518;49.572;1.106;2023-05-09T08:11:23;99268.78;;;13.74;88.10
74960;BME280;63518;49.572;1.106;2023-05-09T08:13:59;99266.47;;;13.90;90.62
74960;BME280;63518;49.572;1.106;2023-05-09T08:16:27;99267.47;;;13.94;88.28
74960;BME280;63518;49.572;1.106;2023-05-09T08:18:54;99258.69;;;13.92;88.84
74960;BME280;63518;49.572;1.106;2023-05-09T08:21:23;99264.44;;;13.81;88.90
74960;BME280;63518;49.572;1.106;2023-05-09T08:23:53;99264.00;;;13.88;90.17
74960;BME280;63518;49.572;1.106;2023-05-09T08:26:21;99256.97;;;13.82;88.24
74960;BME280;63518;49.572;1.106;2023-05-09T08:28:50;99264.34;;;13.86;89.47
74960;BME280;63518;49.572;1.106;2023-05-09T08:31:18;99261.06;;;13.62;90.45
74960;BME280;63518;49.572;1.106;2023-05-09T08:33:53;99256.78;;;13.78;88.25
74960;BME280;63518;49.572;1.106;2023-05-09T08:36:22;99251.59;;;13.18;91.92
74960;BME280;63518;49.572;1.106;2023-05-09T08:38:52;99244.00;;;13.46;90.98
74960;BME280;63518;49.572;1.106;2023-05-09T08:41:24;99237.72;;;13.77;90.32
74960;BME280;63518;49.572;1.106;2023-05-09T08:43:54;99257.09;;;13.99;88.68
74960;BME280;63518;49.572;1.106;2023-05-09T08:46:27;99246.34;;;13.75;90.07
74960;BME280;63518;49.572;1.106;2023-05-09T08:49:07;99246.00;;;13.99;89.29
74960;BME280;63518;49.572;1.106;2023-05-09T08:51:37;99261.88;;;14.07;87.72
74960;BME280;63518;49.572;1.106;2023-05-09T08:54:10;99253.31;;;13.95;87.94
74960;BME280;63518;49.572;1.106;2023-05-09T08:56:37;99251.25;;;13.56;90.91
74960;BME280;63518;49.572;1.106;2023-05-09T08:59:06;99259.75;;;13.60;91.57
74960;BME280;63518;49.572;1.106;2023-05-09T09:01:44;99260.31;;;13.70;89.62
74960;BME280;63518;49.572;1.106;2023-05-09T09:04:12;99246.72;;;13.38;90.74
74960;BME280;63518;49.572;1.106;2023-05-09T09:06:40;99253.72;;;13.35;92.02
74960;BME280;63518;49.572;1.106;2023-05-09T09:09:08;99231.94;;;13.20;92.63
74960;BME280;63518;49.572;1.106;2023-05-09T09:11:45;99252.31;;;13.46;92.49
74960;BME280;63518;49.572;1.106;2023-05-09T09:14:22;99262.63;;;13.32;93.32
74960;BME280;63518;49.572;1.106;2023-05-09T09:16:54;99249.63;;;13.19;92.62
74960;BME280;63518;49.572;1.106;2023-05-09T09:19:28;99247.59;;;12.33;93.66
74960;BME280;63518;49.572;1.106;2023-05-09T09:22:07;99237.44;;;12.42;93.79
74960;BME280;63518;49.572;1.106;2023-05-09T09:24:42;99261.41;;;12.61;93.89
74960;BME280;63518;49.572;1.106;2023-05-09T09:27:20;99259.06;;;12.40;94.58
74960;BME280;63518;49.572;1.106;2023-05-09T09:30:07;99270.72;;;12.37;95.28
74960;BME280;63518;49.572;1.106;2023-05-09T09:32:43;99255.72;;;12.80;93.50
74960;BME280;63518;49.572;1.106;2023-05-09T09:35:19;99271.19;;;13.08;92.31
74960;BME280;63518;49.572;1.106;2023-05-09T09:37:56;99272.84;;;12.54;93.75
74960;BME280;63518;49.572;1.106;2023-05-09T09:40:28;99274.84;;;12.07;95.86
74960;BME280;63518;49.572;1.106;2023-05-09T09:42:55;99274.31;;;11.91;96.60
74960;BME280;63518;49.572;1.106;2023-05-09T09:45:22;99277.31;;;11.95;96.61
74960;BME280;63518;49.572;1.106;2023-05-09T09:47:49;99269.97;;;11.72;96.86
74960;BME280;63518;49.572;1.106;2023-05-09T09:50:18;99260.41;;;11.97;96.42
74960;BME280;63518;49.572;1.106;2023-05-09T09:52:53;99273.38;;;12.42;95.34
74960;BME280;63518;49.572;1.106;2023-05-09T09:55:23;99277.34;;;12.09;95.28
74960;BME280;63518;49.572;1.106;2023-05-09T09:57:51;99276.44;;;12.27;95.59
74960;BME280;63518;49.572;1.106;2023-05-09T10:00:24;99270.78;;;12.18;95.50
74960;BME280;63518;49.572;1.106;2023-05-09T10:02:57;99275.88;;;11.98;95.08
74960;BME280;63518;49.572;1.106;2023-05-09T10:07:57;99278.47;;;12.22;94.94
74960;BME280;63518;49.572;1.106;2023-05-09T10:10:26;99275.19;;;12.19;96.15
74960;BME280;63518;49.572;1.106;2023-05-09T10:13:09;99268.97;;;12.28;96.08
74960;BME280;63518;49.572;1.106;2023-05-09T10:15:42;99256.97;;;12.18;95.19
74960;BME280;63518;49.572;1.106;2023-05-09T10:18:24;99261.56;;;12.23;95.72
74960;BME280;63518;49.572;1.106;2023-05-09T10:20:55;99259.84;;;12.55;95.38
74960;BME280;63518;49.572;1.106;2023-05-09T10:23:23;99252.91;;;12.43;95.35
74960;BME280;63518;49.572;1.106;2023-05-09T10:28:34;99263.03;;;12.34;95.18
74960;BME280;63518;49.572;1.106;2023-05-09T10:33:46;99264.44;;;12.32;93.64
74960;BME280;63518;49.572;1.106;2023-05-09T10:36:18;99258.94;;;12.59;93.76
74960;BME280;63518;49.572;1.106;2023-05-09T10:38:52;99247.78;;;12.37;93.79
74960;BME280;63518;49.572;1.106;2023-05-09T10:41:19;99251.47;;;12.73;93.25
74960;BME280;63518;49.572;1.106;2023-05-09T10:43:50;99253.09;;;12.88;93.71
74960;BME280;63518;49.572;1.106;2023-05-09T10:46:17;99231.91;;;12.01;93.54
74960;BME280;63518;49.572;1.106;2023-05-09T10:48:46;99242.84;;;12.75;92.87
74960;BME280;63518;49.572;1.106;2023-05-09T10:51:23;99254.03;;;12.42;93.53
74960;BME280;63518;49.572;1.106;2023-05-09T10:53:50;99257.31;;;12.72;91.64
74960;BME280;63518;49.572;1.106;2023-05-09T10:56:24;99250.81;;;12.77;92.11
74960;BME280;63518;49.572;1.106;2023-05-09T10:58:52;99249.59;;;12.55;92.48
74960;BME280;63518;49.572;1.106;2023-05-09T11:04:11;99240.97;;;13.12;93.38
74960;BME280;63518;49.572;1.106;2023-05-09T11:06:48;99247.22;;;12.90;91.35
74960;BME280;63518;49.572;1.106;2023-05-09T11:09:30;99245.72;;;12.97;91.91
74960;BME280;63518;49.572;1.106;2023-05-09T11:14:38;99226.25;;;12.61;93.28
74960;BME280;63518;49.572;1.106;2023-05-09T11:22:23;99230.56;;;12.81;92.31
74960;BME280;63518;49.572;1.106;2023-05-09T11:25:02;99237.75;;;13.18;91.55
74960;BME280;63518;49.572;1.106;2023-05-09T11:27:57;99246.16;;;13.72;90.34
74960;BME280;63518;49.572;1.106;2023-05-09T11:30:35;99232.09;;;12.60;91.01
74960;BME280;63518;49.572;1.106;2023-05-09T11:33:05;99234.81;;;12.87;91.02
74960;BME280;63518;49.572;1.106;2023-05-09T11:35:33;99235.69;;;13.24;90.44
74960;BME280;63518;49.572;1.106;2023-05-09T11:38:03;99233.97;;;13.81;89.08
74960;BME280;63518;49.572;1.106;2023-05-09T11:40:32;99233.06;;;13.64;89.42
74960;BME280;63518;49.572;1.106;2023-05-09T11:43:00;99225.31;;;14.05;88.21
74960;BME280;63518;49.572;1.106;2023-05-09T11:45:30;99231.84;;;14.89;87.07
74960;BME280;63518;49.572;1.106;2023-05-09T11:47:58;99233.47;;;14.02;86.16
74960;BME280;63518;49.572;1.106;2023-05-09T11:50:27;99227.03;;;14.55;86.98
74960;BME280;63518;49.572;1.106;2023-05-09T11:52:54;99237.22;;;14.37;87.41
74960;BME280;63518;49.572;1.106;2023-05-09T11:55:21;99237.44;;;15.32;85.79
74960;BME280;63518;49.572;1.106;2023-05-09T11:57:51;99237.97;;;15.34;81.80
74960;BME280;63518;49.572;1.106;2023-05-09T12:00:20;99237.69;;;14.79;83.07
74960;BME280;63518;49.572;1.106;2023-05-09T12:02:48;99242.19;;;15.66;80.72
74960;BME280;63518;49.572;1.106;2023-05-09T12:05:18;99240.63;;;14.82;82.98
74960;BME280;63518;49.572;1.106;2023-05-09T12:07:46;99241.34;;;15.05;83.49
74960;BME280;63518;49.572;1.106;2023-05-09T12:10:15;99239.59;;;14.21;82.50
74960;BME280;63518;49.572;1.106;2023-05-09T12:12:46;99241.19;;;15.02;84.61
74960;BME280;63518;49.572;1.106;2023-05-09T12:15:15;99234.50;;;15.63;80.46
74960;BME280;63518;49.572;1.106;2023-05-09T12:17:44;99239.22;;;14.93;82.12
74960;BME280;63518;49.572;1.106;2023-05-09T12:20:15;99240.50;;;14.96;84.13
74960;BME280;63518;49.572;1.106;2023-05-09T12:22:42;99242.00;;;15.02;83.33
74960;BME280;63518;49.572;1.106;2023-05-09T12:25:10;99240.28;;;16.22;79.29
74960;BME280;63518;49.572;1.106;2023-05-09T12:27:39;99220.81;;;15.49;80.09
74960;BME280;63518;49.572;1.106;2023-05-09T12:30:07;99234.53;;;15.29;81.73
74960;BME280;63518;49.572;1.106;2023-05-09T12:32:39;99237.34;;;14.72;82.82
74960;BME280;63518;49.572;1.106;2023-05-09T12:35:09;99229.91;;;16.40;77.18
74960;BME280;63518;49.572;1.106;2023-05-09T12:37:37;99228.66;;;16.29;79.14
74960;BME280;63518;49.572;1.106;2023-05-09T12:40:09;99237.25;;;16.74;76.46
74960;BME280;63518;49.572;1.106;2023-05-09T12:42:46;99232.53;;;15.55;77.91
74960;BME280;63518;49.572;1.106;2023-05-09T12:45:15;99225.44;;;16.48;75.70
74960;BME280;63518;49.572;1.106;2023-05-09T12:47:42;99236.13;;;15.56;78.47
74960;BME280;63518;49.572;1.106;2023-05-09T12:50:11;99203.81;;;15.25;78.66
74960;BME280;63518;49.572;1.106;2023-05-09T12:52:41;99215.50;;;15.83;77.53
74960;BME280;63518;49.572;1.106;2023-05-09T12:55:27;99228.81;;;15.34;78.69
74960;BME280;63518;49.572;1.106;2023-05-09T12:58:01;99227.91;;;14.90;80.28
74960;BME280;63518;49.572;1.106;2023-05-09T13:00:41;99226.91;;;13.98;81.35
74960;BME280;63518;49.572;1.106;2023-05-09T13:03:26;99225.63;;;14.92;80.51
74960;BME280;63518;49.572;1.106;2023-05-09T13:05:59;99224.72;;;15.22;79.56
74960;BME280;63518;49.572;1.106;2023-05-09T13:08:27;99227.94;;;14.98;78.90
74960;BME280;63518;49.572;1.106;2023-05-09T13:10:58;99236.38;;;16.06;79.10
74960;BME280;63518;49.572;1.106;2023-05-09T13:13:40;99229.38;;;16.00;77.50
74960;BME280;63518;49.572;1.106;2023-05-09T13:16:08;99221.66;;;16.05;76.99
74960;BME280;63518;49.572;1.106;2023-05-09T13:18:41;99231.59;;;15.34;78.12
74960;BME280;63518;49.572;1.106;2023-05-09T13:21:07;99226.94;;;15.90;77.61
74960;BME280;63518;49.572;1.106;2023-05-09T13:23:34;99228.44;;;15.18;77.41
74960;BME280;63518;49.572;1.106;2023-05-09T13:26:01;99221.25;;;15.69;77.84
74960;BME280;63518;49.572;1.106;2023-05-09T13:28:28;99234.53;;;16.19;74.58
74960;BME280;63518;49.572;1.106;2023-05-09T13:30:57;99205.44;;;16.84;73.70
74960;BME280;63518;49.572;1.106;2023-05-09T13:33:24;99241.78;;;18.49;70.00
74960;BME280;63518;49.572;1.106;2023-05-09T13:35:52;99222.59;;;18.36;64.74
74960;BME280;63518;49.572;1.106;2023-05-09T13:38:19;99223.03;;;20.07;62.95
74960;BME280;63518;49.572;1.106;2023-05-09T13:40:46;99226.25;;;19.37;66.09